createdAt,value
2023-05-15T00:00:13.371Z,99669.53
2023-05-15T00:01:13.395Z,99686.84
2023-05-15T00:02:00.456Z,99674.78
2023-05-15T00:02:55.527Z,99677.91
2023-05-15T00:03:49.460Z,99688.34
2023-05-15T00:04:43.474Z,99682.63
2023-05-15T00:05:37.474Z,99688.75
2023-05-15T00:06:31.420Z,99679.06
2023-05-15T00:07:18.440Z,99670.28
2023-05-15T00:07:52.499Z,99686.84
2023-05-15T00:08:39.404Z,99686.06
2023-05-15T00:09:13.522Z,99641.31
2023-05-15T00:10:00.403Z,99664.22
2023-05-15T00:10:34.508Z,99683.97
2023-05-15T00:11:21.439Z,99689.91
2023-05-15T00:11:55.588Z,99686.50
2023-05-15T00:12:43.441Z,99692.63
2023-05-15T00:13:17.598Z,99682.91
2023-05-15T00:14:04.416Z,99685.28
2023-05-15T00:14:38.466Z,99677.84
2023-05-15T00:15:25.622Z,99692.91
2023-05-15T00:15:59.624Z,99697.31
2023-05-15T00:16:46.433Z,99685.56
2023-05-15T00:17:20.575Z,99670.09
2023-05-15T00:18:07.486Z,99687.59
2023-05-15T00:18:41.511Z,99690.25
2023-05-15T00:19:28.395Z,99690.72
2023-05-15T00:20:02.652Z,99680.59
2023-05-15T00:20:49.384Z,99683.66
2023-05-15T00:21:23.483Z,99683.03
2023-05-15T00:22:10.386Z,99673.78
2023-05-15T00:22:44.488Z,99682.63
2023-05-15T00:23:32.437Z,99681.19
2023-05-15T00:24:06.489Z,99700.00
2023-05-15T00:24:53.416Z,99695.03
2023-05-15T00:25:27.486Z,99691.94
2023-05-15T00:26:14.395Z,99682.69
2023-05-15T00:26:48.467Z,99686.72
2023-05-15T00:27:35.403Z,99688.22
2023-05-15T00:28:09.472Z,99678.81
2023-05-15T00:28:58.427Z,99658.66
2023-05-15T00:29:32.527Z,99669.75
2023-05-15T00:30:21.406Z,99672.78
2023-05-15T00:30:55.673Z,99678.13
2023-05-15T00:31:42.462Z,99672.59
2023-05-15T00:32:16.519Z,99683.72
2023-05-15T00:33:03.414Z,99668.66
2023-05-15T00:33:37.527Z,99666.34
2023-05-15T00:34:17.417Z,99671.06
2023-05-15T00:34:57.470Z,99682.16
2023-05-15T00:35:39.394Z,99676.28
2023-05-15T00:36:21.634Z,99664.06
2023-05-15T00:37:01.417Z,99673.81
2023-05-15T00:37:41.744Z,99677.97
2023-05-15T00:38:22.400Z,99670.03
2023-05-15T00:39:02.566Z,99661.41
2023-05-15T00:39:43.410Z,99667.50
2023-05-15T00:40:28.511Z,99669.00
2023-05-15T00:41:09.374Z,99648.94
2023-05-15T00:41:50.596Z,99667.56
2023-05-15T00:42:31.408Z,99668.81
2023-05-15T00:43:12.491Z,99665.34
2023-05-15T00:43:53.429Z,99645.06
2023-05-15T00:44:33.471Z,99670.25
2023-05-15T00:45:15.441Z,99664.97
2023-05-15T00:45:56.481Z,99635.44
2023-05-15T00:46:39.413Z,99656.50
2023-05-15T00:47:20.668Z,99647.22
2023-05-15T00:48:01.593Z,99655.66
2023-05-15T00:48:42.565Z,99642.84
2023-05-15T00:49:25.437Z,99639.59
2023-05-15T00:50:06.534Z,99639.44
2023-05-15T00:50:49.466Z,99663.44
2023-05-15T00:51:29.570Z,99668.84
2023-05-15T00:52:12.382Z,99651.72
2023-05-15T00:52:52.586Z,99651.50
2023-05-15T00:53:35.397Z,99662.97
2023-05-15T00:54:16.533Z,99675.13
2023-05-15T00:54:57.374Z,99677.06
2023-05-15T00:55:38.487Z,99633.69
2023-05-15T00:56:19.402Z,99679.69
2023-05-15T00:57:01.471Z,99681.38
2023-05-15T00:57:42.385Z,99674.22
2023-05-15T00:58:24.623Z,99660.88
2023-05-15T00:59:06.373Z,99682.84
2023-05-15T00:59:49.459Z,99676.53
2023-05-15T01:00:30.392Z,99689.44
2023-05-15T01:01:11.103Z,99667.03
2023-05-15T01:01:51.382Z,99691.13
2023-05-15T01:02:31.571Z,99656.50
2023-05-15T01:03:12.494Z,99657.81
2023-05-15T01:03:53.469Z,99684.44
2023-05-15T01:04:34.389Z,99648.31
2023-05-15T01:05:15.464Z,99668.03
2023-05-15T01:05:56.372Z,99648.78
2023-05-15T01:06:39.455Z,99660.16
2023-05-15T01:07:20.382Z,99657.41
2023-05-15T01:08:50.457Z,99665.75
2023-05-15T01:09:31.412Z,99648.41
2023-05-15T01:10:13.487Z,99661.31
2023-05-15T01:10:58.377Z,99663.41
2023-05-15T01:11:38.516Z,99640.09
2023-05-15T01:12:23.396Z,99651.56
2023-05-15T01:13:04.476Z,99647.66
2023-05-15T01:13:45.390Z,99661.78
2023-05-15T01:14:25.515Z,99640.84
2023-05-15T01:15:05.373Z,99647.00
2023-05-15T01:15:45.575Z,99637.75
2023-05-15T01:16:28.379Z,99628.38
2023-05-15T01:17:08.465Z,99625.66
2023-05-15T01:17:49.435Z,99624.59
2023-05-15T01:18:32.601Z,99622.25
2023-05-15T01:19:13.471Z,99633.75
2023-05-15T01:19:55.554Z,99623.59
2023-05-15T01:20:36.355Z,99635.16
2023-05-15T01:21:57.452Z,99627.88
2023-05-15T01:23:05.400Z,99633.69
2023-05-15T01:23:57.472Z,99630.34
2023-05-15T01:25:24.541Z,99616.53
2023-05-15T01:26:22.427Z,99622.91
2023-05-15T01:27:11.338Z,99621.25
2023-05-15T01:28:28.400Z,99612.53
2023-05-15T01:29:37.351Z,99611.47
2023-05-15T01:30:44.357Z,99598.97
2023-05-15T01:31:40.430Z,99606.94
2023-05-15T01:32:58.393Z,99598.97
2023-05-15T01:33:50.364Z,99575.47
2023-05-15T01:34:25.470Z,99600.38
2023-05-15T01:35:38.346Z,99587.78
2023-05-15T01:36:31.475Z,99566.44
2023-05-15T01:37:21.351Z,99552.91
2023-05-15T01:38:01.415Z,99584.50
2023-05-15T01:39:04.369Z,99598.00
2023-05-15T01:39:40.416Z,99580.06
2023-05-15T01:40:29.333Z,99584.94
2023-05-15T01:41:22.235Z,99594.25
2023-05-15T01:42:16.352Z,99599.06
2023-05-15T01:43:02.453Z,99598.59
2023-05-15T01:43:46.387Z,99587.16
2023-05-15T01:44:40.379Z,99600.69
2023-05-15T01:45:18.815Z,99587.34
2023-05-15T01:45:53.717Z,99576.16
2023-05-15T01:46:34.370Z,99564.59
2023-05-15T01:47:45.572Z,99577.00
2023-05-15T01:48:20.626Z,99577.06
2023-05-15T01:49:01.355Z,99577.47
2023-05-15T01:49:35.560Z,99570.97
2023-05-15T01:50:20.361Z,99572.47
2023-05-15T01:51:03.374Z,99556.25
2023-05-15T01:51:45.338Z,99562.34
2023-05-15T01:52:33.470Z,99575.22
2023-05-15T01:53:21.310Z,99572.72
2023-05-15T01:53:56.482Z,99560.09
2023-05-15T01:54:44.335Z,99547.94
2023-05-15T01:55:27.610Z,99558.38
2023-05-15T01:56:24.358Z,99547.47
2023-05-15T01:57:20.377Z,99551.72
2023-05-15T01:58:15.321Z,99547.53
2023-05-15T01:59:10.310Z,99542.06
2023-05-15T02:00:05.326Z,99537.66
2023-05-15T02:00:53.371Z,99551.97
2023-05-15T02:01:28.442Z,99540.53
2023-05-15T02:03:19.414Z,99554.25
2023-05-15T02:04:15.350Z,99533.94
2023-05-15T02:05:10.328Z,99532.69
2023-05-15T02:06:04.359Z,99537.31
2023-05-15T02:06:58.358Z,99538.63
2023-05-15T02:07:52.329Z,99531.22
2023-05-15T02:08:47.324Z,99533.09
2023-05-15T02:09:41.331Z,99529.97
2023-05-15T02:10:36.315Z,99520.94
2023-05-15T02:11:23.366Z,99525.97
2023-05-15T02:11:57.377Z,99524.91
2023-05-15T02:12:47.323Z,99517.94
2023-05-15T02:13:22.381Z,99525.97
2023-05-15T02:14:11.341Z,99531.00
2023-05-15T02:14:45.481Z,99515.31
2023-05-15T02:15:34.330Z,99517.41
2023-05-15T02:16:08.454Z,99525.44
2023-05-15T02:16:49.350Z,99524.59
2023-05-15T02:17:29.644Z,99514.19
2023-05-15T02:18:10.312Z,99515.53
2023-05-15T02:18:52.576Z,99514.84
2023-05-15T02:19:33.322Z,99507.69
2023-05-15T02:20:14.453Z,99504.31
2023-05-15T02:20:55.315Z,99501.88
2023-05-15T02:21:36.418Z,99492.84
2023-05-15T02:22:17.337Z,99514.53
2023-05-15T02:22:57.397Z,99491.25
2023-05-15T02:23:37.348Z,99492.16
2023-05-15T02:24:17.456Z,99489.38
2023-05-15T02:24:58.318Z,99482.78
2023-05-15T02:25:55.505Z,99481.78
2023-05-15T02:27:18.374Z,99502.84
2023-05-15T02:28:07.418Z,99506.50
2023-05-15T02:29:05.314Z,99491.50
2023-05-15T02:30:00.470Z,99500.97
2023-05-15T02:31:04.286Z,99490.81
2023-05-15T02:31:51.417Z,99497.59
2023-05-15T02:33:10.326Z,99487.44
2023-05-15T02:34:13.421Z,99463.47
2023-05-15T02:35:45.342Z,99476.16
2023-05-15T02:36:30.870Z,99486.41
2023-05-15T02:37:16.297Z,99473.06
2023-05-15T02:38:00.375Z,99477.88
2023-05-15T02:39:09.309Z,99480.41
2023-05-15T02:39:53.783Z,99461.81
2023-05-15T02:40:34.316Z,99476.75
2023-05-15T02:41:14.412Z,99470.06
2023-05-15T02:41:55.291Z,99451.94
2023-05-15T02:42:37.466Z,99457.47
2023-05-15T02:43:18.302Z,99469.31
2023-05-15T02:44:00.227Z,99462.84
2023-05-15T02:44:43.301Z,99448.72
2023-05-15T02:45:24.553Z,99454.66
2023-05-15T02:46:06.329Z,99452.09
2023-05-15T02:46:47.422Z,99434.38
2023-05-15T02:47:29.312Z,99448.56
2023-05-15T02:48:23.284Z,99427.88
2023-05-15T02:49:17.307Z,99450.88
2023-05-15T02:50:04.300Z,99419.84
2023-05-15T02:50:38.432Z,99437.44
2023-05-15T02:51:26.283Z,99439.69
2023-05-15T02:52:00.447Z,99421.38
2023-05-15T02:52:47.286Z,99411.91
2023-05-15T02:53:22.059Z,99414.81
2023-05-15T02:54:09.306Z,99422.34
2023-05-15T02:54:43.366Z,99405.47
2023-05-15T02:55:24.592Z,99427.31
2023-05-15T02:56:05.436Z,99428.63
2023-05-15T02:56:45.301Z,99401.38
2023-05-15T02:57:25.368Z,99402.41
2023-05-15T02:58:06.292Z,99428.03
2023-05-15T02:58:46.358Z,99415.44
2023-05-15T02:59:26.300Z,99409.63
2023-05-15T03:00:09.141Z,99404.56
2023-05-15T03:00:49.402Z,99424.94
2023-05-15T03:01:29.506Z,99424.75
2023-05-15T03:02:10.295Z,99406.56
2023-05-15T03:02:50.499Z,99412.09
2023-05-15T03:03:30.260Z,99414.25
2023-05-15T03:04:10.468Z,99407.94
2023-05-15T03:04:50.269Z,99413.00
2023-05-15T03:05:44.288Z,99422.22
2023-05-15T03:06:25.327Z,99422.50
2023-05-15T03:07:05.564Z,99414.69
2023-05-15T03:07:46.285Z,99421.94
2023-05-15T03:08:26.368Z,99402.19
2023-05-15T03:09:06.258Z,99390.34
2023-05-15T03:09:47.413Z,99413.19
2023-05-15T03:10:30.260Z,99405.38
2023-05-15T03:11:10.482Z,99412.25
2023-05-15T03:11:50.280Z,99396.28
2023-05-15T03:12:30.421Z,99391.88
2023-05-15T03:13:10.288Z,99403.91
2023-05-15T03:13:50.429Z,99417.41
2023-05-15T03:14:31.310Z,99414.59
2023-05-15T03:15:13.499Z,99407.81
2023-05-15T03:15:53.352Z,99405.22
2023-05-15T03:16:37.002Z,99394.75
2023-05-15T03:17:17.299Z,99396.34
2023-05-15T03:17:57.427Z,99406.09
2023-05-15T03:18:38.293Z,99409.88
2023-05-15T03:19:18.879Z,99402.66
2023-05-15T03:20:00.259Z,99402.84
2023-05-15T03:20:40.384Z,99414.47
2023-05-15T03:21:21.250Z,99397.66
2023-05-15T03:22:01.366Z,99397.84
2023-05-15T03:22:42.292Z,99406.28
2023-05-15T03:23:22.382Z,99399.16
2023-05-15T03:24:03.261Z,99381.59
2023-05-15T03:24:43.378Z,99407.06
2023-05-15T03:25:24.431Z,99401.50
2023-05-15T03:26:04.473Z,99398.03
2023-05-15T03:26:47.259Z,99393.97
2023-05-15T03:27:27.354Z,99392.38
2023-05-15T03:28:07.288Z,99404.13
2023-05-15T03:28:47.324Z,99378.97
2023-05-15T03:29:27.253Z,99396.06
2023-05-15T03:30:07.366Z,99389.16
2023-05-15T03:30:51.281Z,99381.56
2023-05-15T03:31:31.359Z,99398.97
2023-05-15T03:32:12.267Z,99404.59
2023-05-15T03:32:52.412Z,99374.75
2023-05-15T03:33:32.276Z,99402.16
2023-05-15T03:34:12.364Z,99396.06
2023-05-15T03:34:53.246Z,99399.91
2023-05-15T03:35:33.472Z,99415.91
2023-05-15T03:36:14.241Z,99405.38
2023-05-15T03:36:55.426Z,99397.28
2023-05-15T03:37:35.227Z,99415.28
2023-05-15T03:38:15.431Z,99403.91
2023-05-15T03:38:56.274Z,99387.22
2023-05-15T03:39:36.325Z,99391.88
2023-05-15T03:40:17.250Z,99410.47
2023-05-15T03:40:57.340Z,99397.25
2023-05-15T03:41:38.227Z,99388.22
2023-05-15T03:42:23.604Z,99386.41
2023-05-15T03:43:05.229Z,99392.56
2023-05-15T03:43:45.343Z,99387.50
2023-05-15T03:44:25.242Z,99377.75
2023-05-15T03:45:05.487Z,99381.16
2023-05-15T03:45:46.241Z,99355.03
2023-05-15T03:46:26.460Z,99378.91
2023-05-15T03:47:07.227Z,99373.72
2023-05-15T03:47:48.389Z,99382.38
2023-05-15T03:48:28.225Z,99385.31
2023-05-15T03:49:08.345Z,99382.31
2023-05-15T03:49:49.259Z,99384.28
2023-05-15T03:50:29.359Z,99379.00
2023-05-15T03:51:10.463Z,99383.50
2023-05-15T03:51:52.403Z,99381.03
2023-05-15T03:52:32.241Z,99370.94
2023-05-15T03:53:12.347Z,99359.97
2023-05-15T03:53:52.252Z,99370.28
2023-05-15T03:54:32.319Z,99372.47
2023-05-15T03:55:13.255Z,99345.28
2023-05-15T03:55:53.356Z,99372.72
2023-05-15T03:56:33.221Z,99382.66
2023-05-15T03:57:13.329Z,99361.03
2023-05-15T03:57:53.240Z,99362.97
2023-05-15T03:58:33.412Z,99379.47
2023-05-15T03:59:14.234Z,99367.25
2023-05-15T03:59:54.363Z,99367.72
2023-05-15T04:00:34.262Z,99379.53
2023-05-15T04:01:14.335Z,99346.59
2023-05-15T04:02:04.053Z,99373.88
2023-05-15T04:02:59.404Z,99366.53
2023-05-15T04:03:53.230Z,99355.59
2023-05-15T04:04:47.255Z,99364.00
2023-05-15T04:05:41.401Z,99371.75
2023-05-15T04:06:35.226Z,99366.88
2023-05-15T04:07:29.264Z,99372.09
2023-05-15T04:08:23.230Z,99355.91
2023-05-15T04:09:17.250Z,99376.53
2023-05-15T04:10:11.246Z,99361.25
2023-05-15T04:10:58.285Z,99357.50
2023-05-15T04:11:34.707Z,99360.63
2023-05-15T04:12:21.247Z,99372.72
2023-05-15T04:12:55.366Z,99366.72
2023-05-15T04:13:42.206Z,99373.75
2023-05-15T04:14:16.342Z,99355.41
2023-05-15T04:15:12.204Z,99369.88
2023-05-15T04:15:47.418Z,99358.03
2023-05-15T04:16:28.296Z,99365.63
2023-05-15T04:17:08.376Z,99367.78
2023-05-15T04:17:50.345Z,99358.94
2023-05-15T04:18:30.462Z,99356.44
2023-05-15T04:19:11.340Z,99351.28
2023-05-15T04:19:51.336Z,99358.09
2023-05-15T04:20:32.233Z,99374.91
2023-05-15T04:21:12.308Z,99345.03
2023-05-15T04:21:52.246Z,99352.66
2023-05-15T04:22:32.296Z,99352.25
2023-05-15T04:23:13.234Z,99352.69
2023-05-15T04:23:53.368Z,99340.00
2023-05-15T04:24:33.233Z,99330.69
2023-05-15T04:25:15.151Z,99357.13
2023-05-15T04:25:55.241Z,99346.84
2023-05-15T04:26:35.483Z,99358.81
2023-05-15T04:27:16.241Z,99357.75
2023-05-15T04:27:56.575Z,99358.03
2023-05-15T04:28:37.219Z,99362.25
2023-05-15T04:29:17.334Z,99355.03
2023-05-15T04:29:57.240Z,99360.22
2023-05-15T04:30:38.329Z,99343.09
2023-05-15T04:31:19.263Z,99355.69
2023-05-15T04:32:00.680Z,99356.19
2023-05-15T04:32:41.293Z,99355.25
2023-05-15T04:33:21.394Z,99348.44
2023-05-15T04:34:01.210Z,99348.81
2023-05-15T04:34:41.305Z,99354.44
2023-05-15T04:35:22.274Z,99359.38
2023-05-15T04:36:02.291Z,99359.84
2023-05-15T04:36:43.261Z,99354.41
2023-05-15T04:37:23.310Z,99352.97
2023-05-15T04:38:04.272Z,99349.97
2023-05-15T04:38:44.356Z,99312.44
2023-05-15T04:39:24.218Z,99353.81
2023-05-15T04:40:06.789Z,99354.06
2023-05-15T04:40:47.220Z,99338.66
2023-05-15T04:41:27.344Z,99327.03
2023-05-15T04:42:11.387Z,99339.03
2023-05-15T04:42:52.309Z,99344.88
2023-05-15T04:43:32.237Z,99329.44
2023-05-15T04:44:15.335Z,99344.25
2023-05-15T04:44:56.248Z,99351.78
2023-05-15T04:45:36.398Z,99337.88
2023-05-15T04:46:17.268Z,99346.19
2023-05-15T04:46:57.280Z,99346.06
2023-05-15T04:47:38.290Z,99330.63
2023-05-15T04:48:19.217Z,99338.28
2023-05-15T04:49:00.846Z,99326.44
2023-05-15T04:49:41.298Z,99347.81
2023-05-15T04:50:22.414Z,99324.22
2023-05-15T04:51:02.361Z,99339.97
2023-05-15T04:51:42.200Z,99344.75
2023-05-15T04:52:23.265Z,99338.09
2023-05-15T04:53:04.201Z,99344.75
2023-05-15T04:53:45.366Z,99334.56
2023-05-15T04:54:26.268Z,99325.84
2023-05-15T04:55:06.322Z,99316.56
2023-05-15T04:55:46.224Z,99340.81
2023-05-15T04:56:26.334Z,99327.38
2023-05-15T04:57:06.211Z,99343.44
2023-05-15T04:57:46.364Z,99336.31
2023-05-15T04:58:27.224Z,99317.44
2023-05-15T04:59:07.268Z,99341.59
2023-05-15T04:59:47.213Z,99333.81
2023-05-15T05:00:27.377Z,99330.78
2023-05-15T05:01:07.204Z,99320.53
2023-05-15T05:01:47.318Z,99336.22
2023-05-15T05:02:29.231Z,99336.22
2023-05-15T05:03:09.543Z,99321.50
2023-05-15T05:03:50.248Z,99328.78
2023-05-15T05:04:30.559Z,99311.22
2023-05-15T05:05:12.204Z,99312.88
2023-05-15T05:05:52.274Z,99324.69
2023-05-15T05:06:33.206Z,99313.19
2023-05-15T05:07:13.261Z,99323.13
2023-05-15T05:07:53.164Z,99320.72
2023-05-15T05:08:33.302Z,99308.38
2023-05-15T05:09:13.167Z,99321.09
2023-05-15T05:09:53.283Z,99315.78
2023-05-15T05:10:34.309Z,99321.72
2023-05-15T05:11:14.295Z,99323.09
2023-05-15T05:11:55.238Z,99313.41
2023-05-15T05:12:35.289Z,99318.09
2023-05-15T05:13:15.178Z,99316.91
2023-05-15T05:13:56.317Z,99292.19
2023-05-15T05:14:38.276Z,99307.19
2023-05-15T05:15:18.287Z,99315.28
2023-05-15T05:15:58.255Z,99313.81
2023-05-15T05:16:38.328Z,99311.88
2023-05-15T05:17:18.153Z,99316.47
2023-05-15T05:18:00.421Z,99311.31
2023-05-15T05:18:41.175Z,99307.34
2023-05-15T05:19:21.305Z,99299.81
2023-05-15T05:20:02.166Z,99313.25
2023-05-15T05:20:42.272Z,99278.91
2023-05-15T05:21:22.193Z,99287.22
2023-05-15T05:22:04.950Z,99308.56
2023-05-15T05:22:47.241Z,99292.22
2023-05-15T05:23:30.376Z,99311.19
2023-05-15T05:24:11.224Z,99309.09
2023-05-15T05:24:51.290Z,99286.50
2023-05-15T05:25:31.204Z,99307.03
2023-05-15T05:26:11.359Z,99271.50
2023-05-15T05:26:55.182Z,99314.16
2023-05-15T05:27:35.231Z,99305.41
2023-05-15T05:28:15.161Z,99296.69
2023-05-15T05:28:55.286Z,99284.44
2023-05-15T05:29:40.225Z,99291.38
2023-05-15T05:30:20.829Z,99300.06
2023-05-15T05:31:02.219Z,99291.69
2023-05-15T05:31:42.337Z,99288.25
2023-05-15T05:32:22.198Z,99304.66
2023-05-15T05:33:02.436Z,99261.56
2023-05-15T05:33:43.163Z,99302.59
2023-05-15T05:34:23.329Z,99301.31
2023-05-15T05:35:04.176Z,99296.22
2023-05-15T05:35:44.524Z,99307.19
2023-05-15T05:36:25.460Z,99304.41
2023-05-15T05:37:05.291Z,99304.47
2023-05-15T05:37:45.207Z,99288.13
2023-05-15T05:38:27.594Z,99286.28
2023-05-15T05:39:08.168Z,99305.66
2023-05-15T05:39:48.268Z,99293.47
2023-05-15T05:40:28.177Z,99284.09
2023-05-15T05:41:09.803Z,99293.84
2023-05-15T05:41:51.210Z,99283.16
2023-05-15T05:42:31.243Z,99303.63
2023-05-15T05:43:12.218Z,99283.91
2023-05-15T05:43:52.285Z,99305.13
2023-05-15T05:44:33.201Z,99298.06
2023-05-15T05:45:14.236Z,99294.31
2023-05-15T05:45:55.155Z,99282.16
2023-05-15T05:46:36.326Z,99272.03
2023-05-15T05:47:18.225Z,99292.28
2023-05-15T05:47:58.279Z,99292.00
2023-05-15T05:48:40.197Z,99291.91
2023-05-15T05:49:22.777Z,99286.66
2023-05-15T05:50:03.164Z,99270.34
2023-05-15T05:50:44.342Z,99284.63
2023-05-15T05:51:25.153Z,99275.41
2023-05-15T05:52:13.233Z,99269.44
2023-05-15T05:52:53.149Z,99265.34
2023-05-15T05:53:36.066Z,99274.13
2023-05-15T05:54:25.257Z,99271.59
2023-05-15T05:55:11.302Z,99277.22
2023-05-15T05:55:52.192Z,99269.50
2023-05-15T05:56:32.251Z,99269.16
2023-05-15T05:57:14.142Z,99280.97
2023-05-15T05:57:58.297Z,99271.19
2023-05-15T05:58:39.205Z,99264.31
2023-05-15T05:59:19.297Z,99249.84
2023-05-15T06:00:02.464Z,99271.78
2023-05-15T06:00:43.384Z,99255.44
2023-05-15T06:01:50.844Z,99270.94
2023-05-15T06:02:53.343Z,99254.66
2023-05-15T06:03:34.319Z,99245.41
2023-05-15T06:04:15.602Z,99252.56
2023-05-15T06:04:56.258Z,99249.59
2023-05-15T06:05:38.177Z,99247.56
2023-05-15T06:06:26.587Z,99256.72
2023-05-15T06:07:08.128Z,99255.81
2023-05-15T06:07:50.813Z,99241.25
2023-05-15T06:08:32.146Z,99258.00
2023-05-15T06:09:12.226Z,99258.53
2023-05-15T06:09:55.136Z,99244.50
2023-05-15T06:10:35.564Z,99247.66
2023-05-15T06:11:16.220Z,99239.06
2023-05-15T06:11:56.412Z,99256.53
2023-05-15T06:12:39.148Z,99254.94
2023-05-15T06:13:23.557Z,99221.19
2023-05-15T06:14:04.130Z,99246.09
2023-05-15T06:14:45.337Z,99234.34
2023-05-15T06:15:25.280Z,99222.53
2023-05-15T06:16:08.275Z,99247.97
2023-05-15T06:16:50.226Z,99235.25
2023-05-15T06:17:30.342Z,99234.72
2023-05-15T06:18:21.146Z,99243.53
2023-05-15T06:18:55.315Z,99248.84
2023-05-15T06:19:42.133Z,99244.66
2023-05-15T06:20:16.430Z,99238.34
2023-05-15T06:21:07.159Z,99222.38
2023-05-15T06:21:41.249Z,99233.78
2023-05-15T06:22:21.144Z,99232.06
2023-05-15T06:23:16.128Z,99231.84
2023-05-15T06:24:10.126Z,99241.97
2023-05-15T06:25:04.164Z,99241.34
2023-05-15T06:26:00.621Z,99245.78
2023-05-15T06:26:54.100Z,99244.31
2023-05-15T06:27:41.212Z,99237.63
2023-05-15T06:28:15.187Z,99227.16
2023-05-15T06:29:03.113Z,99238.34
2023-05-15T06:29:37.273Z,99221.56
2023-05-15T06:30:24.324Z,99223.59
2023-05-15T06:30:58.230Z,99232.38
2023-05-15T06:31:45.122Z,99242.91
2023-05-15T06:32:19.191Z,99215.91
2023-05-15T06:33:06.175Z,99233.16
2023-05-15T06:33:45.250Z,99230.59
2023-05-15T06:34:34.134Z,99221.66
2023-05-15T06:35:09.213Z,99213.72
2023-05-15T06:35:58.146Z,99194.75
2023-05-15T06:36:32.290Z,99226.91
2023-05-15T06:37:19.164Z,99209.25
2023-05-15T06:37:53.339Z,99206.13
2023-05-15T06:38:33.133Z,99218.59
2023-05-15T06:39:13.254Z,99214.31
2023-05-15T06:39:54.114Z,99208.44
2023-05-15T06:40:34.251Z,99220.69
2023-05-15T06:41:16.169Z,99222.63
2023-05-15T06:42:01.168Z,99232.34
2023-05-15T06:42:41.154Z,99226.22
2023-05-15T06:43:21.207Z,99226.72
2023-05-15T06:44:05.236Z,99206.09
2023-05-15T06:44:45.273Z,99213.28
2023-05-15T06:45:26.365Z,99217.41
2023-05-15T06:46:08.791Z,99204.69
2023-05-15T06:46:52.202Z,99213.38
2023-05-15T06:47:32.431Z,99206.66
2023-05-15T06:48:14.141Z,99216.41
2023-05-15T06:48:55.228Z,99206.09
2023-05-15T06:49:36.122Z,99202.53
2023-05-15T06:50:17.184Z,99207.56
2023-05-15T06:50:58.188Z,99211.34
2023-05-15T06:51:38.251Z,99216.53
2023-05-15T06:52:18.103Z,99193.31
2023-05-15T06:52:58.207Z,99193.41
2023-05-15T06:53:39.118Z,99194.91
2023-05-15T06:54:19.210Z,99196.19
2023-05-15T06:55:00.184Z,99199.84
2023-05-15T06:55:40.223Z,99191.69
2023-05-15T06:56:20.140Z,99187.13
2023-05-15T06:57:00.173Z,99212.41
2023-05-15T06:57:41.072Z,99211.06
2023-05-15T06:58:21.196Z,99195.06
2023-05-15T06:59:01.071Z,99187.00
2023-05-15T06:59:41.245Z,99195.25
2023-05-15T07:00:22.114Z,99209.47
2023-05-15T07:01:03.936Z,99210.34
2023-05-15T07:01:45.170Z,99201.91
2023-05-15T07:02:25.260Z,99193.53
2023-05-15T07:03:05.215Z,99211.44
2023-05-15T07:03:45.259Z,99212.72
2023-05-15T07:04:25.214Z,99199.06
2023-05-15T07:05:05.282Z,99213.34
2023-05-15T07:05:46.101Z,99185.09
2023-05-15T07:06:26.522Z,99203.47
2023-05-15T07:07:06.107Z,99201.19
2023-05-15T07:07:46.292Z,99194.91
2023-05-15T07:08:26.130Z,99187.78
2023-05-15T07:09:07.179Z,99180.38
2023-05-15T07:09:48.092Z,99197.91
2023-05-15T07:10:28.386Z,99191.19
2023-05-15T07:11:09.132Z,99171.19
2023-05-15T07:11:52.155Z,99198.38
2023-05-15T07:12:33.088Z,99197.09
2023-05-15T07:13:13.173Z,99190.34
2023-05-15T07:13:54.113Z,99176.06
2023-05-15T07:14:35.389Z,99187.44
2023-05-15T07:15:16.127Z,99187.84
2023-05-15T07:15:56.341Z,99184.72
2023-05-15T07:16:37.208Z,99174.19
2023-05-15T07:17:17.594Z,99180.72
2023-05-15T07:17:59.111Z,99167.25
2023-05-15T07:18:39.288Z,99168.50
2023-05-15T07:19:20.101Z,99172.75
2023-05-15T07:20:00.159Z,99177.38
2023-05-15T07:20:40.167Z,99165.59
2023-05-15T07:21:20.220Z,99183.09
2023-05-15T07:22:03.187Z,99169.81
2023-05-15T07:22:55.782Z,99184.59
2023-05-15T07:23:37.093Z,99184.19
2023-05-15T07:24:17.145Z,99178.50
2023-05-15T07:24:57.042Z,99171.81
2023-05-15T07:25:37.361Z,99161.06
2023-05-15T07:26:27.909Z,99175.78
2023-05-15T07:27:22.092Z,99168.63
2023-05-15T07:28:16.088Z,99176.66
2023-05-15T07:29:10.983Z,99181.69
2023-05-15T07:30:07.075Z,99154.97
2023-05-15T07:31:03.456Z,99176.88
2023-05-15T07:31:57.205Z,99167.41
2023-05-15T07:32:44.161Z,99168.03
2023-05-15T07:33:18.224Z,99186.97
2023-05-15T07:34:05.075Z,99183.19
2023-05-15T07:34:39.242Z,99165.50
2023-05-15T07:35:26.301Z,99173.09
2023-05-15T07:36:00.169Z,99188.03
2023-05-15T07:36:47.077Z,99179.19
2023-05-15T07:37:21.191Z,99178.78
2023-05-15T07:38:08.149Z,99159.00
2023-05-15T07:38:42.131Z,99165.50
2023-05-15T07:39:29.112Z,99175.84
2023-05-15T07:40:04.196Z,99155.41
2023-05-15T07:40:51.103Z,99172.03
2023-05-15T07:41:25.138Z,99171.19
2023-05-15T07:42:13.108Z,99154.78
2023-05-15T07:42:47.203Z,99167.41
2023-05-15T07:43:27.056Z,99171.19
2023-05-15T07:44:07.201Z,99171.41
2023-05-15T07:44:49.348Z,99156.25
2023-05-15T07:45:30.181Z,99153.53
2023-05-15T07:46:11.164Z,99155.19
2023-05-15T07:46:51.529Z,99177.09
2023-05-15T07:47:31.049Z,99172.03
2023-05-15T07:48:25.235Z,99164.69
2023-05-15T07:49:06.120Z,99167.84
2023-05-15T07:49:46.140Z,99178.78
2023-05-15T07:50:27.054Z,99161.09
2023-05-15T07:51:07.114Z,99181.75
2023-05-15T07:51:47.059Z,99167.00
2023-05-15T07:52:27.160Z,99154.78
2023-05-15T07:53:07.315Z,99166.16
2023-05-15T07:53:47.263Z,99172.03
2023-05-15T07:54:28.059Z,99165.13
2023-05-15T07:55:08.228Z,99160.25
2023-05-15T07:55:51.099Z,99160.47
2023-05-15T07:56:31.158Z,99169.53
2023-05-15T07:57:12.026Z,99159.81
2023-05-15T07:57:53.722Z,99168.47
2023-05-15T07:58:35.064Z,99172.03
2023-05-15T07:59:15.179Z,99150.59
2023-05-15T07:59:55.048Z,99170.38
2023-05-15T08:00:38.364Z,99165.72
2023-05-15T08:03:24.198Z,99166.59
2023-05-15T08:04:22.126Z,99164.91
2023-05-15T08:05:10.057Z,99143.03
2023-05-15T08:05:44.123Z,99161.94
2023-05-15T08:06:31.043Z,99157.34
2023-05-15T08:07:05.245Z,99143.03
2023-05-15T08:07:52.067Z,99145.53
2023-05-15T08:08:26.120Z,99163.44
2023-05-15T08:09:13.059Z,99139.22
2023-05-15T08:09:47.145Z,99135.88
2023-05-15T08:10:34.033Z,99155.22
2023-05-15T08:11:08.157Z,99149.53
2023-05-15T08:11:55.046Z,99145.94
2023-05-15T08:12:29.127Z,99139.22
2023-05-15T08:13:16.058Z,99134.16
2023-05-15T08:13:50.262Z,99128.72
2023-05-15T08:14:37.031Z,99135.03
2023-05-15T08:15:11.102Z,99143.22
2023-05-15T08:15:58.062Z,99146.16
2023-05-15T08:16:32.191Z,99149.31
2023-05-15T08:17:19.079Z,99152.88
2023-05-15T08:17:53.149Z,99135.44
2023-05-15T08:18:40.081Z,99137.53
2023-05-15T08:19:14.203Z,99142.59
2023-05-15T08:20:02.108Z,99152.69
2023-05-15T08:20:36.281Z,99147.41
2023-05-15T08:21:23.115Z,99149.31
2023-05-15T08:21:57.101Z,99136.25
2023-05-15T08:22:44.018Z,99129.13
2023-05-15T08:23:18.128Z,99141.72
2023-05-15T08:24:07.048Z,99127.66
2023-05-15T08:24:41.126Z,99115.88
2023-05-15T08:25:28.005Z,99133.94
2023-05-15T08:26:02.129Z,99140.25
2023-05-15T08:26:50.030Z,99126.16
2023-05-15T08:27:24.116Z,99118.59
2023-05-15T08:28:12.028Z,99136.28